Time;durP1;ratioP1;P1;durP2;ratioP2;P2;SDS_P1;SDS_P2;PMS_P1;PMS_P2;Temp;Humidity;BMP_temperature;BMP_pressure;BME280_temperature;BME280_humidity;BME280_pressure;Samples;Min_cycle;Max_cycle;Signal;HPM_P1;HPM_P2
2023/05/13 03:00:16;;;;;;;8.07;7.07;;;10.50;99.90;;;;;;6042323;23;20183;31
2023/05/13 03:02:42;;;;;;;7.63;7.20;;;10.50;99.90;;;;;;4945822;29;20229;-75
2023/05/13 03:05:08;;;;;;;7.63;7.23;;;10.50;99.90;;;;;;4933685;29;20591;-74
2023/05/13 03:07:33;;;;;;;10.20;9.50;;;10.50;99.90;;;;;;4933280;29;20242;-75
2023/05/13 03:10:00;;;;;;;9.40;8.87;;;10.50;99.90;;;;;;4934091;29;20202;-75
2023/05/13 03:12:25;;;;;;;10.57;9.90;;;10.50;99.90;;;;;;4961933;28;20278;-74
2023/05/13 03:14:51;;;;;;;13.23;12.53;;;10.50;99.90;;;;;;4927595;29;20222;-75
2023/05/13 03:17:17;;;;;;;13.80;12.90;;;10.50;99.90;;;;;;4915179;29;20243;-75
2023/05/13 03:19:43;;;;;;;13.27;12.57;;;10.50;99.90;;;;;;4914190;29;20243;-75
2023/05/13 03:22:08;;;;;;;13.87;13.17;;;10.50;99.90;;;;;;4914604;29;20207;-75
2023/05/13 03:24:34;;;;;;;14.93;13.57;;;10.50;99.90;;;;;;4924370;29;20204;-75
2023/05/13 03:27:00;;;;;;;13.43;12.63;;;10.50;99.90;;;;;;4915594;29;20740;-75
2023/05/13 03:29:26;;;;;;;14.07;13.13;;;10.50;99.90;;;;;;4915287;29;20293;-75
2023/05/13 03:31:53;;;;;;;13.67;12.97;;;10.50;99.90;;;;;;4914858;29;20203;-75
2023/05/13 03:34:18;;;;;;;10.30;9.73;;;10.40;99.90;;;;;;4914876;29;20184;-75
2023/05/13 03:36:44;;;;;;;10.17;9.47;;;10.50;99.90;;;;;;4915030;29;20183;-75
2023/05/13 03:39:10;;;;;;;8.13;7.60;;;10.50;99.90;;;;;;4914620;29;20705;-75
2023/05/13 03:41:36;;;;;;;7.33;6.93;;;10.50;99.90;;;;;;4924308;29;20213;-75
2023/05/13 03:44:01;;;;;;;6.20;5.80;;;10.50;99.90;;;;;;4914793;29;20187;-75
2023/05/13 03:46:27;;;;;;;6.80;6.40;;;10.50;99.90;;;;;;4914779;29;20198;-75
2023/05/13 03:48:54;;;;;;;6.37;5.97;;;10.50;99.90;;;;;;4914587;29;20219;-75
2023/05/13 03:51:21;;;;;;;5.90;5.60;;;10.50;99.90;;;;;;4929357;29;20290;-76
2023/05/13 03:53:46;;;;;;;6.50;5.93;;;10.50;99.90;;;;;;4915088;29;20274;-76
2023/05/13 03:56:13;;;;;;;6.73;6.33;;;10.50;99.90;;;;;;4913431;29;20270;-75
2023/05/13 03:58:39;;;;;;;5.93;5.43;;;10.50;99.90;;;;;;4914186;29;20191;-75
2023/05/13 04:01:07;;;;;;;5.83;5.47;;;10.50;99.90;;;;;;4913850;29;20648;-75
2023/05/13 04:03:33;;;;;;;6.13;5.73;;;10.50;99.90;;;;;;4913659;29;20183;-76
2023/05/13 04:06:01;;;;;;;6.30;5.80;;;10.50;99.90;;;;;;4917874;29;20191;-75
2023/05/13 04:08:26;;;;;;;5.93;5.40;;;10.50;99.90;;;;;;4926275;29;20265;-76
2023/05/13 04:10:53;;;;;;;6.57;6.17;;;10.60;99.90;;;;;;4936386;28;20202;-75
2023/05/13 04:13:19;;;;;;;6.67;6.00;;;10.60;99.90;;;;;;4935708;29;20182;-75
2023/05/13 04:15:44;;;;;;;8.83;5.90;;;10.60;99.90;;;;;;4951785;29;20551;-75
2023/05/13 04:18:10;;;;;;;6.03;5.60;;;10.60;99.90;;;;;;4935704;29;20623;-75
2023/05/13 04:20:39;;;;;;;5.83;5.50;;;10.70;99.90;;;;;;4936702;28;20206;-75
2023/05/13 04:23:05;;;;;;;6.73;6.00;;;10.70;99.90;;;;;;4921409;29;20720;-75
2023/05/13 04:25:31;;;;;;;6.70;6.03;;;10.80;99.90;;;;;;4916477;29;20274;-75
2023/05/13 04:27:57;;;;;;;6.03;5.63;;;10.80;99.90;;;;;;4917270;29;20270;-75
2023/05/13 04:30:23;;;;;;;6.50;5.90;;;10.80;99.90;;;;;;4917616;29;20325;-75
2023/05/13 04:32:48;;;;;;;6.10;5.70;;;10.80;99.90;;;;;;4917463;29;20254;-75
2023/05/13 04:35:14;;;;;;;5.97;5.67;;;10.80;99.90;;;;;;4917109;29;20187;-74
2023/05/13 04:37:40;;;;;;;6.43;5.97;;;10.90;99.90;;;;;;4921425;29;20210;-75
2023/05/13 04:40:07;;;;;;;6.90;6.20;;;10.90;99.90;;;;;;4936638;29;20194;-75
2023/05/13 04:42:33;;;;;;;6.53;6.00;;;11.00;99.90;;;;;;4936359;29;20214;-75
2023/05/13 04:44:58;;;;;;;6.63;5.97;;;11.00;99.90;;;;;;4935382;29;20565;-75
2023/05/13 04:47:24;;;;;;;6.57;6.17;;;11.00;99.90;;;;;;4936533;28;20605;-75
2023/05/13 04:49:50;;;;;;;7.33;6.73;;;11.10;99.90;;;;;;4931715;28;20210;-75
2023/05/13 04:52:16;;;;;;;8.37;7.67;;;11.00;99.90;;;;;;4916235;29;20202;-74
2023/05/13 04:54:41;;;;;;;8.93;8.23;;;11.10;99.90;;;;;;4917203;29;20183;-74
2023/05/13 04:57:07;;;;;;;9.80;9.20;;;11.10;99.90;;;;;;4914875;29;20183;-74
2023/05/13 04:59:34;;;;;;;10.40;9.50;;;11.10;99.90;;;;;;4917247;29;20689;-75
2023/05/13 05:01:59;;;;;;;10.43;9.70;;;11.10;99.90;;;;;;4916867;29;20277;-74
2023/05/13 05:04:26;;;;;;;10.97;10.20;;;11.20;99.90;;;;;;4917369;29;20191;-75
2023/05/13 05:06:52;;;;;;;20.57;19.40;;;11.30;99.90;;;;;;4938740;29;20186;-74
2023/05/13 05:09:18;;;;;;;18.27;16.90;;;11.30;99.90;;;;;;4950439;29;20218;-74
2023/05/13 05:11:44;;;;;;;12.93;12.17;;;11.40;99.90;;;;;;4936498;29;20577;-75
2023/05/13 05:14:09;;;;;;;8.40;7.83;;;11.40;99.90;;;;;;4936236;29;20190;-74
2023/05/13 05:16:35;;;;;;;6.77;6.37;;;11.40;99.90;;;;;;4935600;28;20218;-75
2023/05/13 05:19:01;;;;;;;6.47;6.07;;;11.40;99.90;;;;;;4935806;28;20186;-74
2023/05/13 05:21:27;;;;;;;6.97;6.47;;;11.40;99.90;;;;;;4918063;29;20206;-74
2023/05/13 05:23:53;;;;;;;7.37;6.97;;;11.50;99.90;;;;;;4940674;29;20233;-74
2023/05/13 05:26:19;;;;;;;10.93;10.33;;;11.50;99.90;;;;;;4931875;29;20186;-70
2023/05/13 05:28:45;;;;;;;14.63;13.87;;;11.60;99.90;;;;;;4920480;29;20285;-70
2023/05/13 05:31:11;;;;;;;21.30;20.10;;;11.70;99.90;;;;;;4917438;29;20192;-70
2023/05/13 05:33:38;;;;;;;23.43;22.23;;;11.70;99.90;;;;;;4934017;29;20268;-72
2023/05/13 05:36:04;;;;;;;26.37;24.97;;;11.70;99.90;;;;;;4933882;29;20194;-70
2023/05/13 05:38:29;;;;;;;25.93;23.97;;;11.70;99.90;;;;;;4932553;29;20192;-70
2023/05/13 05:40:55;;;;;;;24.40;23.07;;;11.70;99.90;;;;;;4934037;29;20206;-70
2023/05/13 05:43:21;;;;;;;22.17;20.93;;;11.70;99.90;;;;;;4934964;29;20210;-70
2023/05/13 05:45:47;;;;;;;20.47;19.03;;;11.80;99.90;;;;;;4935236;29;20300;-70
2023/05/13 05:48:12;;;;;;;19.77;18.67;;;11.80;99.90;;;;;;4934401;29;20685;-70
2023/05/13 05:50:39;;;;;;;17.47;16.47;;;11.80;99.90;;;;;;4933982;29;20199;-70
2023/05/13 05:53:05;;;;;;;13.47;12.60;;;11.90;99.90;;;;;;4934935;29;20575;-70
2023/05/13 05:55:32;;;;;;;14.53;13.63;;;11.90;99.90;;;;;;4916052;29;20630;-70
2023/05/13 05:58:02;;;;;;;22.03;20.83;;;12.00;99.90;;;;;;4915699;29;20654;-70
2023/05/13 06:00:29;;;;;;;24.77;23.47;;;12.10;99.90;;;;;;4918168;29;20271;-70
2023/05/13 06:02:55;;;;;;;21.07;19.73;;;12.30;99.90;;;;;;4930384;29;20192;-69
2023/05/13 06:05:22;;;;;;;14.83;14.00;;;12.40;99.90;;;;;;4933159;28;20218;-69
2023/05/13 06:07:48;;;;;;;10.03;8.50;;;12.50;99.90;;;;;;4933420;28;20186;-70
2023/05/13 06:10:14;;;;;;;5.90;5.53;;;12.60;99.90;;;;;;4933887;29;20244;-70
2023/05/13 06:12:40;;;;;;;8.17;6.10;;;12.50;99.90;;;;;;4933404;28;20638;-70
2023/05/13 06:15:09;;;;;;;5.67;5.37;;;12.50;99.90;;;;;;4934321;29;20213;-70
2023/05/13 06:17:36;;;;;;;6.53;5.93;;;12.60;99.90;;;;;;4932312;29;20659;-69
2023/05/13 06:20:03;;;;;;;5.73;5.33;;;12.60;99.90;;;;;;4933455;29;20190;-70
2023/05/13 06:22:28;;;;;;;5.70;5.30;;;12.70;99.90;;;;;;4934683;29;20706;-69
2023/05/13 06:24:55;;;;;;;5.93;5.43;;;12.90;99.90;;;;;;4934862;29;20551;-69
2023/05/13 06:27:21;;;;;;;6.10;5.70;;;12.90;99.90;;;;;;4934116;29;20186;-69
2023/05/13 06:29:47;;;;;;;6.27;5.77;;;13.00;99.90;;;;;;4934428;29;20249;-70
2023/05/13 06:32:13;;;;;;;6.50;6.10;;;12.90;99.90;;;;;;4933471;29;20208;-69
2023/05/13 06:34:44;;;;;;;6.20;5.60;;;12.90;99.90;;;;;;4934405;29;20182;-70
2023/05/13 06:37:13;;;;;;;5.80;5.50;;;12.90;99.90;;;;;;4932765;29;20754;-69
2023/05/13 06:39:39;;;;;;;6.67;6.27;;;12.90;99.90;;;;;;4934376;28;20193;-70
2023/05/13 06:42:05;;;;;;;6.00;5.50;;;12.90;99.90;;;;;;4934340;29;20217;-70
2023/05/13 06:44:31;;;;;;;7.10;6.50;;;12.80;99.90;;;;;;4933263;29;20265;-70
2023/05/13 06:46:57;;;;;;;6.20;5.80;;;12.90;99.90;;;;;;4934095;29;20273;-70
2023/05/13 06:49:25;;;;;;;6.10;5.80;;;13.00;99.90;;;;;;4933110;29;20213;-71
2023/05/13 06:51:51;;;;;;;6.67;6.27;;;13.10;99.90;;;;;;4934171;29;20205;-71
2023/05/13 06:54:17;;;;;;;6.97;6.57;;;13.30;99.90;;;;;;4934324;29;20178;-70
2023/05/13 06:56:43;;;;;;;9.47;8.77;;;13.50;99.90;;;;;;4934068;29;20183;-70
2023/05/13 06:59:09;;;;;;;10.67;10.17;;;13.60;99.90;;;;;;4933643;29;20182;-70
2023/05/13 07:01:35;;;;;;;11.27;10.47;;;13.70;99.90;;;;;;4936987;29;20244;-70
2023/05/13 07:04:00;;;;;;;12.17;11.47;;;13.80;99.90;;;;;;4941017;29;20643;-69
2023/05/13 07:06:26;;;;;;;11.70;11.10;;;13.90;99.90;;;;;;4934012;29;20198;-71
2023/05/13 07:08:52;;;;;;;12.23;11.37;;;13.90;99.90;;;;;;4933830;29;20217;-70
2023/05/13 07:11:18;;;;;;;13.00;12.20;;;13.90;99.90;;;;;;4933682;29;20214;-71
2023/05/13 07:13:44;;;;;;;11.83;11.03;;;13.90;99.90;;;;;;4933165;29;20241;-72
2023/05/13 07:16:10;;;;;;;9.57;8.97;;;13.70;99.90;;;;;;4932935;29;20193;-71
2023/05/13 07:18:36;;;;;;;10.57;10.00;;;13.70;99.90;;;;;;4934584;29;20212;-72
2023/05/13 07:21:01;;;;;;;12.03;11.43;;;13.80;99.90;;;;;;4934084;29;20210;-71
2023/05/13 07:23:27;;;;;;;12.27;11.47;;;13.90;99.90;;;;;;4933877;29;20178;-74
2023/05/13 07:25:53;;;;;;;13.17;12.20;;;13.90;99.90;;;;;;4933818;29;20234;-72
2023/05/13 07:28:19;;;;;;;12.50;11.87;;;14.00;99.90;;;;;;4933596;29;20190;-71
2023/05/13 07:30:45;;;;;;;14.10;13.37;;;14.00;99.90;;;;;;4933714;29;20202;-71
2023/05/13 07:33:11;;;;;;;14.90;13.77;;;14.10;99.90;;;;;;4933824;29;20186;-70
2023/05/13 07:35:37;;;;;;;10.77;10.03;;;14.30;99.90;;;;;;4933946;29;20194;-71
2023/05/13 07:38:03;;;;;;;8.60;8.00;;;14.30;99.90;;;;;;4932112;29;20187;-70
2023/05/13 07:40:29;;;;;;;12.63;11.40;;;14.10;99.90;;;;;;4935237;29;20197;-71
2023/05/13 07:42:55;;;;;;;13.20;12.50;;;14.10;99.90;;;;;;4937584;29;20182;-70
2023/05/13 07:45:21;;;;;;;11.73;11.03;;;14.10;99.90;;;;;;4937397;29;20274;-71
2023/05/13 07:47:46;;;;;;;10.17;9.67;;;14.20;99.90;;;;;;4937003;29;20231;-71
2023/05/13 07:50:12;;;;;;;10.10;9.50;;;14.20;99.90;;;;;;4937028;29;20213;-71
2023/05/13 07:52:38;;;;;;;8.90;8.40;;;14.30;99.90;;;;;;4935897;29;20179;-71
2023/05/13 07:55:04;;;;;;;7.00;6.50;;;14.40;99.90;;;;;;4936116;29;20186;-71
2023/05/13 07:57:30;;;;;;;6.47;5.87;;;14.50;99.90;;;;;;4936998;29;20658;-71
2023/05/13 07:59:56;;;;;;;6.63;5.97;;;14.50;99.90;;;;;;4937074;29;20186;-71
2023/05/13 08:02:23;;;;;;;7.33;6.10;;;14.50;99.90;;;;;;4935688;29;20218;-71
2023/05/13 08:04:49;;;;;;;5.77;5.47;;;14.50;99.90;;;;;;4936799;29;20213;-71
2023/05/13 08:07:14;;;;;;;5.50;5.10;;;14.50;99.90;;;;;;4935180;29;20685;-71
2023/05/13 08:09:40;;;;;;;5.53;5.13;;;14.20;99.90;;;;;;4936700;29;20220;-72
2023/05/13 08:12:06;;;;;;;5.47;5.07;;;14.30;99.90;;;;;;4935530;29;20213;-71
2023/05/13 08:14:32;;;;;;;12.30;11.70;;;14.30;99.90;;;;;;4935636;29;20201;-71
2023/05/13 08:16:58;;;;;;;11.37;10.50;;;14.30;99.90;;;;;;4935819;29;20190;-75
2023/05/13 08:19:24;;;;;;;10.37;9.77;;;14.00;99.90;;;;;;4939289;29;20186;-74
2023/05/13 08:21:49;;;;;;;6.37;5.97;;;14.00;99.90;;;;;;4936955;29;20388;-73
2023/05/13 08:24:15;;;;;;;6.20;5.83;;;14.00;99.90;;;;;;4936875;29;20223;-73
2023/05/13 08:26:41;;;;;;;11.87;11.07;;;13.90;99.90;;;;;;4936767;29;20182;-73
2023/05/13 08:29:11;;;;;;;10.30;9.70;;;14.00;99.90;;;;;;4936045;28;20241;-74
2023/05/13 08:31:37;;;;;;;9.10;8.60;;;14.20;99.90;;;;;;4936513;29;20209;-73
2023/05/13 08:34:03;;;;;;;5.73;5.40;;;14.10;99.90;;;;;;4934882;29;20262;-73
2023/05/13 08:36:29;;;;;;;6.80;6.40;;;14.00;99.90;;;;;;4936328;28;20721;-73
2023/05/13 08:38:55;;;;;;;7.00;6.60;;;13.80;99.90;;;;;;4935049;29;20229;-73
2023/05/13 08:41:21;;;;;;;7.30;6.67;;;13.90;99.90;;;;;;4935348;29;20593;-73
2023/05/13 08:43:48;;;;;;;8.27;7.80;;;14.10;99.90;;;;;;4936503;29;20190;-72
2023/05/13 08:46:17;;;;;;;11.47;10.87;;;14.20;99.90;;;;;;4935133;29;20221;-74
2023/05/13 08:48:43;;;;;;;10.03;9.53;;;14.10;99.90;;;;;;4934505;29;20206;-74
2023/05/13 08:51:09;;;;;;;12.07;11.27;;;14.10;99.90;;;;;;4935257;29;20210;-74
2023/05/13 08:53:38;;;;;;;10.13;9.60;;;13.90;99.90;;;;;;4935351;29;20178;-73
2023/05/13 08:56:05;;;;;;;11.77;11.13;;;13.90;99.90;;;;;;4940988;29;20210;-75
2023/05/13 08:58:31;;;;;;;21.00;20.00;;;14.00;99.90;;;;;;4941430;29;20555;-74
2023/05/13 09:00:57;;;;;;;10.20;9.60;;;13.90;99.90;;;;;;4941358;29;20226;-72
2023/05/13 09:03:26;;;;;;;7.77;7.27;;;13.80;99.90;;;;;;4939269;29;20265;-70
2023/05/13 09:05:52;;;;;;;8.43;7.83;;;14.00;99.90;;;;;;4937194;28;20572;-73
2023/05/13 09:08:18;;;;;;;11.90;11.30;;;14.20;99.90;;;;;;4936158;28;20266;-72
2023/05/13 09:10:45;;;;;;;13.20;12.50;;;14.40;99.90;;;;;;4936220;28;20683;-71
2023/05/13 09:13:12;;;;;;;6.33;6.03;;;14.70;99.90;;;;;;4935996;29;20186;-70
2023/05/13 09:15:41;;;;;;;6.27;5.87;;;14.80;99.90;;;;;;4996370;23;20734;-76
2023/05/13 09:18:07;;;;;;;11.07;10.47;;;15.10;99.90;;;;;;4991582;28;20231;-76
2023/05/13 09:20:34;;;;;;;14.63;13.93;;;15.30;99.90;;;;;;4996838;28;20192;-76
2023/05/13 09:23:03;;;;;;;18.27;17.33;;;15.30;99.90;;;;;;5001436;28;20187;-75
2023/05/13 09:25:30;;;;;;;26.53;25.33;;;15.40;99.90;;;;;;4999866;28;20564;-76
2023/05/13 09:27:57;;;;;;;38.57;36.67;;;15.50;99.90;;;;;;5001218;28;20330;-74
2023/05/13 09:30:39;;;;;;;26.17;24.90;;;15.40;99.90;;;;;;4993843;28;20374;-73
2023/05/13 09:33:15;;;;;;;28.90;27.50;;;15.40;99.90;;;;;;4975658;28;20207;-72
2023/05/13 09:35:52;;;;;;;38.53;36.67;;;15.40;99.90;;;;;;4973766;28;20751;-72
2023/05/13 09:38:18;;;;;;;29.87;28.37;;;15.00;99.90;;;;;;4972190;28;20566;-73
2023/05/13 09:40:54;;;;;;;21.23;20.20;;;15.00;99.90;;;;;;4973735;28;20185;-72
2023/05/13 09:43:21;;;;;;;27.43;26.17;;;15.20;99.90;;;;;;4972501;28;20558;-73
2023/05/13 09:45:52;;;;;;;40.10;38.00;;;15.30;99.90;;;;;;4980552;28;20703;-72
2023/05/13 09:48:21;;;;;;;20.33;19.33;;;15.00;99.90;;;;;;4992429;28;20710;-72
2023/05/13 09:50:48;;;;;;;17.07;16.23;;;14.80;99.90;;;;;;4991774;28;20208;-70
2023/05/13 09:53:15;;;;;;;14.40;13.73;;;14.80;99.90;;;;;;4991728;28;20234;-72
2023/05/13 09:55:48;;;;;;;14.53;13.73;;;14.70;99.90;;;;;;4991577;28;20200;-73
2023/05/13 09:58:14;;;;;;;15.47;14.30;;;14.70;99.90;;;;;;4991302;28;20185;-73
2023/05/13 10:00:42;;;;;;;16.93;16.13;;;14.70;99.90;;;;;;4977694;28;20619;-73
2023/05/13 10:03:08;;;;;;;15.03;14.23;;;14.90;99.90;;;;;;4952801;28;20213;-72
2023/05/13 10:05:35;;;;;;;17.77;16.87;;;15.00;99.90;;;;;;4953052;28;20735;-74
2023/05/13 10:08:02;;;;;;;24.67;23.43;;;15.10;99.90;;;;;;4954270;28;20192;-74
2023/05/13 10:10:30;;;;;;;45.70;43.47;;;15.30;99.90;;;;;;4972562;28;20220;-74
2023/05/13 10:13:04;;;;;;;33.33;31.60;;;15.70;99.90;;;;;;4971725;28;20236;-75
2023/05/13 10:15:31;;;;;;;33.80;32.10;;;15.70;99.90;;;;;;4985506;28;20244;-75
2023/05/13 10:17:58;;;;;;;41.57;39.57;;;15.50;99.90;;;;;;4971546;28;20200;-75
2023/05/13 10:20:27;;;;;;;29.07;27.67;;;15.70;99.90;;;;;;4973254;28;20211;-76
2023/05/13 10:22:54;;;;;;;26.50;25.10;;;16.00;99.90;;;;;;4975050;28;20268;-74
2023/05/13 10:25:21;;;;;;;21.80;20.60;;;16.10;99.90;;;;;;4972343;28;20208;-76
2023/05/13 10:27:48;;;;;;;4.43;4.17;;;16.50;99.90;;;;;;4981593;28;20188;-75
2023/05/13 10:30:16;;;;;;;4.43;4.03;;;16.90;99.90;;;;;;4992448;28;20204;-74
2023/05/13 10:32:42;;;;;;;4.40;4.20;;;16.80;99.90;;;;;;4991404;28;20640;-74
2023/05/13 10:35:12;;;;;;;4.30;4.10;;;16.30;99.90;;;;;;4992210;28;20216;-75
2023/05/13 10:37:49;;;;;;;4.87;4.47;;;16.30;99.90;;;;;;4992324;28;20180;-76
2023/05/13 10:40:53;;;;;;;4.00;3.80;;;16.40;99.90;;;;;;4992339;28;20207;-74
2023/05/13 10:43:25;;;;;;;4.30;4.00;;;16.30;99.90;;;;;;4968360;28;20184;-73
2023/05/13 10:46:06;;;;;;;4.93;4.53;;;16.30;99.90;;;;;;4952294;29;20280;-68
2023/05/13 10:48:47;;;;;;;4.87;4.57;;;16.40;99.90;;;;;;4953247;28;20575;-69
2023/05/13 10:51:14;;;;;;;4.70;4.50;;;16.50;99.90;;;;;;4953326;29;20188;-68
2023/05/13 10:53:47;;;;;;;4.33;4.13;;;16.40;99.90;;;;;;4968176;28;20181;-71
2023/05/13 10:56:14;;;;;;;5.23;4.93;;;15.90;99.90;;;;;;4978606;28;20184;-67
2023/05/13 10:58:40;;;;;;;8.37;7.83;;;15.70;99.90;;;;;;4991819;28;20184;-71
2023/05/13 11:01:17;;;;;;;13.67;12.87;;;15.50;99.90;;;;;;4991915;28;20658;-72
2023/05/13 11:04:03;;;;;;;28.93;27.53;;;15.40;99.90;;;;;;4992064;28;20180;-71
2023/05/13 11:06:37;;;;;;;43.23;41.13;;;15.20;99.90;;;;;;4991932;28;20185;-71
2023/05/13 11:09:08;;;;;;;40.40;38.37;;;15.20;99.90;;;;;;4987200;28;20800;-71
2023/05/13 11:11:35;;;;;;;32.90;31.30;;;15.50;99.90;;;;;;4972569;28;20203;-71
2023/05/13 11:14:09;;;;;;;36.10;34.07;;;15.40;99.90;;;;;;4971553;28;20247;-71
2023/05/13 11:16:36;;;;;;;31.70;30.17;;;15.50;99.90;;;;;;4976415;28;20216;-72
2023/05/13 11:19:17;;;;;;;37.00;35.13;;;15.40;99.90;;;;;;4975981;28;20191;-71
2023/05/13 11:21:48;;;;;;;42.57;40.37;;;15.30;99.90;;;;;;4975262;28;20231;-71
2023/05/13 11:24:17;;;;;;;44.50;42.33;;;15.40;99.90;;;;;;4990281;28;20204;-74
2023/05/13 11:26:45;;;;;;;33.93;32.20;;;15.50;99.90;;;;;;4996167;28;20699;-71
2023/05/13 11:29:12;;;;;;;40.37;38.37;;;15.50;99.90;;;;;;4995013;28;20305;-72
2023/05/13 11:31:51;;;;;;;32.70;31.20;;;15.60;99.90;;;;;;4995452;28;20180;-71
2023/05/13 11:34:19;;;;;;;35.07;33.37;;;15.70;99.90;;;;;;4995838;28;20252;-73
2023/05/13 11:36:47;;;;;;;38.47;36.47;;;15.70;99.90;;;;;;4992608;28;20173;-71
2023/05/13 11:39:15;;;;;;;36.00;34.20;;;15.70;99.90;;;;;;4975842;28;20189;-71
2023/05/13 11:41:46;;;;;;;29.40;27.87;;;15.90;99.90;;;;;;4975000;28;20188;-71
2023/05/13 11:44:14;;;;;;;20.47;19.47;;;16.20;99.90;;;;;;4976863;28;20209;-72
2023/05/13 11:46:56;;;;;;;5.70;5.40;;;16.40;99.90;;;;;;4975758;28;20185;-73
2023/05/13 11:49:49;;;;;;;5.37;4.87;;;16.70;99.90;;;;;;4974472;28;20212;-75
2023/05/13 11:52:18;;;;;;;6.40;6.00;;;16.70;99.90;;;;;;4987112;28;20192;-72
2023/05/13 11:54:47;;;;;;;5.00;4.70;;;17.10;99.90;;;;;;4994912;28;20196;-74
2023/05/13 11:57:33;;;;;;;5.93;5.63;;;17.50;99.90;;;;;;4992584;28;20220;-72
2023/05/13 12:00:05;;;;;;;5.20;4.90;;;17.70;99.90;;;;;;4974558;28;20324;-74
2023/05/13 12:02:35;;;;;;;5.23;4.83;;;18.00;99.90;;;;;;4976131;28;20185;-74
2023/05/13 12:05:05;;;;;;;5.50;5.20;;;17.90;99.90;;;;;;4981302;28;20195;-74
2023/05/13 12:07:32;;;;;;;5.73;5.43;;;17.80;99.90;;;;;;4996225;28;20541;-75
2023/05/13 12:10:00;;;;;;;6.40;6.00;;;17.90;99.90;;;;;;4994908;28;20207;-74
2023/05/13 12:12:27;;;;;;;7.80;7.30;;;18.00;99.90;;;;;;4993827;28;20275;-73
2023/05/13 12:14:55;;;;;;;13.10;12.43;;;18.10;99.90;;;;;;4994398;28;20220;-74
2023/05/13 12:17:21;;;;;;;14.47;13.67;;;18.40;99.90;;;;;;4993331;28;20212;-74
2023/05/13 12:20:13;;;;;;;14.30;13.50;;;18.60;99.90;;;;;;4986469;28;20209;-74
2023/05/13 12:22:42;;;;;;;15.17;14.33;;;18.70;99.90;;;;;;4980240;28;20196;-71
2023/05/13 12:25:42;;;;;;;19.00;18.00;;;18.40;99.90;;;;;;4979085;28;20268;-71
2023/05/13 12:28:21;;;;;;;20.00;18.93;;;18.60;99.90;;;;;;4981821;28;20185;-71
2023/05/13 12:30:55;;;;;;;10.83;10.07;;;18.70;99.90;;;;;;4975152;28;20223;-71
2023/05/13 12:33:22;;;;;;;8.53;8.07;;;19.00;99.90;;;;;;4983674;28;20541;-72
2023/05/13 12:35:50;;;;;;;10.43;9.83;;;18.80;99.90;;;;;;4994038;28;20410;-71
2023/05/13 12:38:18;;;;;;;9.57;9.07;;;18.90;99.90;;;;;;4993942;28;20200;-71
2023/05/13 12:40:48;;;;;;;11.30;10.50;;;19.00;99.90;;;;;;4994143;28;20183;-71
2023/05/13 12:43:16;;;;;;;13.87;13.17;;;19.10;99.90;;;;;;4994079;28;20184;-71
2023/05/13 12:45:44;;;;;;;18.17;17.07;;;19.10;99.90;;;;;;4993948;28;20212;-72
2023/05/13 12:48:10;;;;;;;10.57;10.03;;;18.70;99.90;;;;;;4973620;28;20185;-71
2023/05/13 12:50:36;;;;;;;10.00;9.30;;;18.40;99.90;;;;;;4970746;28;20204;-71
2023/05/13 12:53:02;;;;;;;8.77;8.27;;;18.20;99.90;;;;;;4974525;28;20189;-72
2023/05/13 12:55:28;;;;;;;13.57;12.40;;;18.00;99.90;;;;;;4974038;28;20543;-72
2023/05/13 12:57:56;;;;;;;27.13;25.63;;;17.80;99.90;;;;;;4973006;28;20181;-72
2023/05/13 13:00:23;;;;;;;29.90;28.40;;;17.50;99.90;;;;;;4974826;28;20264;-74
2023/05/13 13:02:48;;;;;;;13.10;12.40;;;17.20;99.90;;;;;;4977109;28;20195;-72
2023/05/13 13:05:14;;;;;;;6.53;6.03;;;17.00;99.90;;;;;;4993847;28;20200;-72
2023/05/13 13:07:41;;;;;;;5.10;4.80;;;16.90;99.90;;;;;;4993437;28;20188;-72
2023/05/13 13:10:08;;;;;;;6.47;6.07;;;16.60;99.90;;;;;;4993940;28;20208;-71
2023/05/13 13:12:33;;;;;;;9.00;8.60;;;16.40;99.90;;;;;;4993804;28;20568;-72
2023/05/13 13:15:00;;;;;;;11.53;10.83;;;16.20;99.90;;;;;;4984722;28;20211;-72
2023/05/13 13:17:26;;;;;;;8.53;8.03;;;16.00;99.90;;;;;;4983502;28;20299;-72
2023/05/13 13:19:52;;;;;;;10.67;10.17;;;15.80;99.90;;;;;;4993240;28;20566;-72
2023/05/13 13:22:18;;;;;;;24.53;23.33;;;15.80;99.90;;;;;;4992199;28;20188;-72
2023/05/13 13:24:44;;;;;;;51.13;48.47;;;15.60;99.90;;;;;;4993037;28;20204;-72
2023/05/13 13:27:12;;;;;;;64.30;61.13;;;15.40;99.90;;;;;;4992706;28;20181;-72
2023/05/13 13:29:39;;;;;;;43.93;41.57;;;15.30;99.90;;;;;;4992495;28;20215;-72
2023/05/13 13:32:05;;;;;;;24.50;23.30;;;15.20;99.90;;;;;;4991794;28;20186;-72
2023/05/13 13:34:31;;;;;;;14.07;13.20;;;15.00;99.90;;;;;;4991832;28;20283;-72
2023/05/13 13:36:57;;;;;;;12.60;11.77;;;14.90;99.90;;;;;;4990912;28;20681;-72
2023/05/13 13:39:23;;;;;;;11.40;10.70;;;14.80;99.90;;;;;;4992896;28;20184;-72
2023/05/13 13:41:48;;;;;;;9.70;9.10;;;14.70;99.90;;;;;;4992834;28;20668;-72
2023/05/13 13:44:14;;;;;;;11.10;9.47;;;14.70;99.90;;;;;;4974684;28;20201;-71
2023/05/13 13:46:40;;;;;;;17.93;15.67;;;14.60;99.90;;;;;;4973830;28;20200;-72
2023/05/13 13:49:06;;;;;;;9.93;9.33;;;14.70;99.90;;;;;;4973777;28;20252;-72
2023/05/13 13:51:32;;;;;;;10.83;10.17;;;14.80;99.90;;;;;;4975371;28;20215;-72
2023/05/13 13:54:07;;;;;;;10.93;10.13;;;14.80;99.90;;;;;;4973212;28;20204;-71
2023/05/13 13:56:36;;;;;;;9.90;9.30;;;14.80;99.90;;;;;;4977768;28;20183;-71
2023/05/13 13:59:02;;;;;;;10.73;10.00;;;14.70;99.90;;;;;;4992218;28;20220;-71
2023/05/13 14:01:28;;;;;;;12.40;11.60;;;14.70;99.90;;;;;;4991966;28;20246;-72
2023/05/13 14:04:12;;;;;;;11.73;10.80;;;14.80;99.90;;;;;;4992538;28;20192;-72
2023/05/13 14:06:38;;;;;;;17.47;16.43;;;15.30;99.90;;;;;;4991313;28;20188;-71
2023/05/13 14:09:04;;;;;;;35.73;33.70;;;15.70;99.90;;;;;;4992043;28;20676;-72
2023/05/13 14:11:30;;;;;;;30.17;28.53;;;16.30;99.90;;;;;;4978897;28;20333;-72
2023/05/13 14:13:56;;;;;;;12.03;11.23;;;16.80;99.90;;;;;;4984438;28;20293;-72
2023/05/13 14:16:22;;;;;;;8.83;8.23;;;17.30;99.90;;;;;;4990665;28;20185;-71
2023/05/13 14:18:48;;;;;;;7.80;7.30;;;17.70;99.90;;;;;;4991713;28;20184;-71
2023/05/13 14:21:13;;;;;;;6.10;5.70;;;18.10;99.90;;;;;;4992031;28;20185;-75
2023/05/13 14:23:42;;;;;;;8.03;7.43;;;18.80;99.90;;;;;;4990888;28;20180;-72
2023/05/13 14:26:09;;;;;;;11.50;10.83;;;19.10;99.90;;;;;;4972880;28;20177;-73
2023/05/13 14:28:35;;;;;;;9.47;8.83;;;19.60;99.90;;;;;;4971913;28;20216;-72
2023/05/13 14:31:01;;;;;;;10.73;10.03;;;20.10;99.90;;;;;;4972459;28;20177;-72
2023/05/13 14:33:27;;;;;;;14.07;13.17;;;20.30;99.90;;;;;;4971037;28;20746;-72
2023/05/13 14:35:52;;;;;;;12.87;11.70;;;21.10;99.90;;;;;;4972130;28;20227;-72
2023/05/13 14:38:18;;;;;;;10.53;9.93;;;21.20;99.90;;;;;;4975183;28;20180;-73
2023/05/13 14:40:44;;;;;;;7.53;6.93;;;21.10;99.90;;;;;;4991763;28;20185;-75
2023/05/13 14:43:10;;;;;;;6.23;5.40;;;20.80;99.90;;;;;;4991730;28;20193;-73
2023/05/13 14:45:36;;;;;;;9.20;8.70;;;20.40;99.90;;;;;;4992191;28;20208;-72
2023/05/13 14:48:01;;;;;;;15.60;14.80;;;19.10;99.90;;;;;;4992073;28;20180;-72
2023/05/13 14:50:27;;;;;;;9.57;8.97;;;18.10;99.90;;;;;;4991334;28;20270;-73
2023/05/13 14:52:53;;;;;;;22.73;21.47;;;17.70;99.90;;;;;;4982085;28;20709;-72
2023/05/13 14:55:18;;;;;;;31.73;30.07;;;17.50;99.90;;;;;;4972039;28;20211;-72
2023/05/13 14:57:44;;;;;;;8.03;7.53;;;17.10;99.90;;;;;;4970969;28;20187;-72
2023/05/13 15:00:11;;;;;;;6.50;6.00;;;17.10;99.90;;;;;;4971081;28;20789;-73
2023/05/13 15:02:36;;;;;;;7.70;7.20;;;17.00;99.90;;;;;;4972187;28;20740;-72
2023/05/13 15:05:02;;;;;;;15.73;14.83;;;16.70;99.90;;;;;;4972175;28;20292;-72
2023/05/13 15:07:28;;;;;;;15.47;14.67;;;16.50;99.90;;;;;;4981778;28;20207;-72
2023/05/13 15:09:54;;;;;;;14.17;13.37;;;16.60;99.90;;;;;;4959855;28;20232;-73
2023/05/13 15:12:20;;;;;;;12.13;11.33;;;16.90;99.90;;;;;;4970992;28;20180;-72
2023/05/13 15:14:57;;;;;;;11.20;10.50;;;17.00;99.90;;;;;;4997943;23;20232;-70
2023/05/13 15:17:23;;;;;;;10.43;9.53;;;17.20;99.90;;;;;;4989730;28;20211;-70
2023/05/13 15:19:49;;;;;;;7.60;7.13;;;17.40;99.90;;;;;;4989621;28;20652;-70
2023/05/13 15:22:15;;;;;;;13.73;12.93;;;17.40;99.90;;;;;;4990924;28;20231;-70
2023/05/13 15:24:41;;;;;;;16.93;16.00;;;17.00;99.90;;;;;;4991129;28;20204;-70
2023/05/13 15:27:08;;;;;;;19.10;17.90;;;16.80;99.90;;;;;;4990802;28;20557;-70
2023/05/13 15:29:34;;;;;;;15.03;14.13;;;16.80;99.90;;;;;;4991713;28;20294;-69
2023/05/13 15:31:59;;;;;;;13.23;12.00;;;17.00;99.90;;;;;;4991734;28;20610;-70
2023/05/13 15:34:25;;;;;;;13.77;12.77;;;17.10;99.90;;;;;;4989582;28;20569;-70
2023/05/13 15:36:51;;;;;;;12.87;12.10;;;17.10;99.90;;;;;;4972176;28;20236;-70